sensor_id;sensor_type;location;lat;lon;timestamp;pressure;altitude;pressure_sealevel;temperature;humidity
37206;BME280;23099;42.636;23.198;2023-11-19T00:00:00;91886.28;;;1.66;91.31
37206;BME280;23099;42.636;23.198;2023-11-19T00:02:29;91883.81;;;1.70;91.70
37206;BME280;23099;42.636;23.198;2023-11-19T00:04:57;91875.56;;;1.63;90.84
37206;BME280;23099;42.636;23.198;2023-11-19T00:07:24;91877.00;;;1.69;89.56
37206;BME280;23099;42.636;23.198;2023-11-19T00:09:51;91879.31;;;1.70;91.04
37206;BME280;23099;42.636;23.198;2023-11-19T00:12:17;91882.56;;;1.76;91.34
37206;BME280;23099;42.636;23.198;2023-11-19T00:14:44;91890.31;;;1.81;89.98
37206;BME280;23099;42.636;23.198;2023-11-19T00:17:11;91885.53;;;1.83;90.16
37206;BME280;23099;42.636;23.198;2023-11-19T00:19:38;91902.41;;;1.91;90.03
37206;BME280;23099;42.636;23.198;2023-11-19T00:22:06;91894.38;;;1.87;88.56
37206;BME280;23099;42.636;23.198;2023-11-19T00:24:33;91892.19;;;1.81;87.91
37206;BME280;23099;42.636;23.198;2023-11-19T00:26:59;91895.47;;;1.86;88.60
37206;BME280;23099;42.636;23.198;2023-11-19T00:29:26;91900.88;;;1.81;88.89
37206;BME280;23099;42.636;23.198;2023-11-19T00:31:53;91896.81;;;1.75;88.54
37206;BME280;23099;42.636;23.198;2023-11-19T00:34:19;91906.88;;;1.56;88.63
37206;BME280;23099;42.636;23.198;2023-11-19T00:36:47;91891.84;;;1.65;89.07
37206;BME280;23099;42.636;23.198;2023-11-19T00:39:15;91902.25;;;1.70;88.43
37206;BME280;23099;42.636;23.198;2023-11-19T00:41:43;91903.47;;;1.55;90.45
37206;BME280;23099;42.636;23.198;2023-11-19T00:44:11;91903.34;;;1.69;90.32
37206;BME280;23099;42.636;23.198;2023-11-19T00:46:38;91905.19;;;1.77;90.04
37206;BME280;23099;42.636;23.198;2023-11-19T00:49:04;91904.41;;;1.76;89.48
37206;BME280;23099;42.636;23.198;2023-11-19T00:51:31;91899.00;;;1.73;90.63
37206;BME280;23099;42.636;23.198;2023-11-19T00:53:58;91893.25;;;1.62;88.79
37206;BME280;23099;42.636;23.198;2023-11-19T00:56:27;91900.66;;;1.60;89.29
37206;BME280;23099;42.636;23.198;2023-11-19T00:58:54;91907.50;;;1.61;90.07
37206;BME280;23099;42.636;23.198;2023-11-19T01:01:21;91912.16;;;1.56;90.41
37206;BME280;23099;42.636;23.198;2023-11-19T01:03:48;91912.91;;;1.56;90.55
37206;BME280;23099;42.636;23.198;2023-11-19T01:06:14;91915.25;;;1.58;90.34
37206;BME280;23099;42.636;23.198;2023-11-19T01:08:42;91918.66;;;1.58;89.31
37206;BME280;23099;42.636;23.198;2023-11-19T01:11:19;91912.91;;;1.56;89.52
37206;BME280;23099;42.636;23.198;2023-11-19T01:13:48;91912.25;;;1.42;90.33
37206;BME280;23099;42.636;23.198;2023-11-19T01:16:15;91898.94;;;1.38;89.22
37206;BME280;23099;42.636;23.198;2023-11-19T01:18:41;91902.66;;;1.37;90.14
37206;BME280;23099;42.636;23.198;2023-11-19T01:21:08;91903.06;;;1.31;90.96
37206;BME280;23099;42.636;23.198;2023-11-19T01:23:35;91892.88;;;1.38;90.40
37206;BME280;23099;42.636;23.198;2023-11-19T01:26:02;91908.22;;;1.45;90.45
37206;BME280;23099;42.636;23.198;2023-11-19T01:28:30;91912.88;;;1.48;89.77
37206;BME280;23099;42.636;23.198;2023-11-19T01:30:59;91912.88;;;1.39;88.65
37206;BME280;23099;42.636;23.198;2023-11-19T01:33:25;91920.47;;;1.40;90.10
37206;BME280;23099;42.636;23.198;2023-11-19T01:35:53;91920.63;;;1.44;89.18
37206;BME280;23099;42.636;23.198;2023-11-19T01:38:19;91921.59;;;1.57;90.30
37206;BME280;23099;42.636;23.198;2023-11-19T01:40:46;91917.88;;;1.66;90.72
37206;BME280;23099;42.636;23.198;2023-11-19T01:43:30;91910.44;;;1.60;89.19
37206;BME280;23099;42.636;23.198;2023-11-19T01:45:59;91908.56;;;1.52;87.72
37206;BME280;23099;42.636;23.198;2023-11-19T01:48:26;91929.50;;;1.57;87.84
37206;BME280;23099;42.636;23.198;2023-11-19T01:50:53;91941.72;;;1.53;88.17
37206;BME280;23099;42.636;23.198;2023-11-19T01:53:20;91941.72;;;1.44;88.00
37206;BME280;23099;42.636;23.198;2023-11-19T01:55:47;91942.13;;;1.29;89.16
37206;BME280;23099;42.636;23.198;2023-11-19T01:58:15;91943.69;;;1.30;88.60
37206;BME280;23099;42.636;23.198;2023-11-19T02:00:44;91943.50;;;1.26;89.10
37206;BME280;23099;42.636;23.198;2023-11-19T02:03:13;91935.22;;;1.11;87.99
37206;BME280;23099;42.636;23.198;2023-11-19T02:05:41;91937.75;;;1.24;88.63
37206;BME280;23099;42.636;23.198;2023-11-19T02:08:08;91925.84;;;1.27;88.47
37206;BME280;23099;42.636;23.198;2023-11-19T02:10:35;91929.28;;;1.36;89.22
37206;BME280;23099;42.636;23.198;2023-11-19T02:13:02;91920.63;;;1.44;89.57
37206;BME280;23099;42.636;23.198;2023-11-19T02:15:30;91931.19;;;1.53;89.45
37206;BME280;23099;42.636;23.198;2023-11-19T02:17:57;91943.72;;;1.47;86.89
37206;BME280;23099;42.636;23.198;2023-11-19T02:20:25;91929.09;;;1.32;87.71
37206;BME280;23099;42.636;23.198;2023-11-19T02:22:53;91916.47;;;1.43;87.74
37206;BME280;23099;42.636;23.198;2023-11-19T02:25:27;91932.44;;;1.55;86.61
37206;BME280;23099;42.636;23.198;2023-11-19T02:27:58;91928.56;;;1.53;86.99
37206;BME280;23099;42.636;23.198;2023-11-19T02:30:26;91920.34;;;1.63;85.70
37206;BME280;23099;42.636;23.198;2023-11-19T02:32:54;91912.94;;;1.65;86.05
37206;BME280;23099;42.636;23.198;2023-11-19T02:35:22;91905.63;;;1.62;86.70
37206;BME280;23099;42.636;23.198;2023-11-19T02:37:49;91902.22;;;1.61;87.34
37206;BME280;23099;42.636;23.198;2023-11-19T02:40:16;91909.34;;;1.61;86.56
37206;BME280;23099;42.636;23.198;2023-11-19T02:42:42;91893.84;;;1.51;87.44
37206;BME280;23099;42.636;23.198;2023-11-19T02:45:11;91900.47;;;1.39;88.71
37206;BME280;23099;42.636;23.198;2023-11-19T02:47:40;91890.69;;;1.23;90.05
37206;BME280;23099;42.636;23.198;2023-11-19T02:50:08;91897.72;;;1.05;88.48
37206;BME280;23099;42.636;23.198;2023-11-19T02:52:39;91912.25;;;1.02;89.75
37206;BME280;23099;42.636;23.198;2023-11-19T02:55:06;91903.03;;;1.14;90.55
37206;BME280;23099;42.636;23.198;2023-11-19T02:57:35;91907.06;;;1.20;90.28
37206;BME280;23099;42.636;23.198;2023-11-19T03:00:02;91903.94;;;1.09;88.52
37206;BME280;23099;42.636;23.198;2023-11-19T03:02:39;91915.44;;;1.13;90.30
37206;BME280;23099;42.636;23.198;2023-11-19T03:05:10;91906.75;;;1.13;91.85
37206;BME280;23099;42.636;23.198;2023-11-19T03:07:37;91914.34;;;1.14;89.37
37206;BME280;23099;42.636;23.198;2023-11-19T03:10:04;91926.25;;;1.12;89.28
37206;BME280;23099;42.636;23.198;2023-11-19T03:12:31;91926.06;;;1.08;87.76
37206;BME280;23099;42.636;23.198;2023-11-19T03:14:58;91925.66;;;1.15;88.23
37206;BME280;23099;42.636;23.198;2023-11-19T03:17:25;91939.44;;;1.20;89.05
37206;BME280;23099;42.636;23.198;2023-11-19T03:19:53;91925.78;;;1.10;90.08
37206;BME280;23099;42.636;23.198;2023-11-19T03:22:19;91938.66;;;1.20;89.05
37206;BME280;23099;42.636;23.198;2023-11-19T03:24:47;91933.88;;;1.22;89.30
37206;BME280;23099;42.636;23.198;2023-11-19T03:27:13;91930.94;;;1.23;87.88
37206;BME280;23099;42.636;23.198;2023-11-19T03:29:40;91931.22;;;1.13;88.17
37206;BME280;23099;42.636;23.198;2023-11-19T03:32:06;91924.53;;;1.16;89.39
37206;BME280;23099;42.636;23.198;2023-11-19T03:34:33;91927.53;;;1.23;88.69
37206;BME280;23099;42.636;23.198;2023-11-19T03:37:01;91931.88;;;1.27;88.18
37206;BME280;23099;42.636;23.198;2023-11-19T03:39:29;91947.34;;;1.20;88.30
37206;BME280;23099;42.636;23.198;2023-11-19T03:41:55;91949.97;;;1.20;88.01
37206;BME280;23099;42.636;23.198;2023-11-19T03:44:22;91939.75;;;1.19;88.45
37206;BME280;23099;42.636;23.198;2023-11-19T03:46:51;91958.50;;;1.26;87.17
37206;BME280;23099;42.636;23.198;2023-11-19T03:49:18;91965.66;;;1.34;87.24
37206;BME280;23099;42.636;23.198;2023-11-19T03:51:45;91973.88;;;1.32;87.44
37206;BME280;23099;42.636;23.198;2023-11-19T03:54:13;91969.66;;;1.31;86.33
37206;BME280;23099;42.636;23.198;2023-11-19T03:56:40;91970.31;;;1.37;88.12
37206;BME280;23099;42.636;23.198;2023-11-19T03:59:07;91954.81;;;1.35;87.07
37206;BME280;23099;42.636;23.198;2023-11-19T04:01:35;91956.47;;;1.23;87.64
37206;BME280;23099;42.636;23.198;2023-11-19T04:04:03;91969.53;;;1.36;87.63
37206;BME280;23099;42.636;23.198;2023-11-19T04:06:29;91954.53;;;1.37;87.12
37206;BME280;23099;42.636;23.198;2023-11-19T04:08:56;91966.25;;;1.31;87.37
37206;BME280;23099;42.636;23.198;2023-11-19T04:11:24;91987.97;;;1.36;87.94
37206;BME280;23099;42.636;23.198;2023-11-19T04:13:51;91983.38;;;1.42;88.20
37206;BME280;23099;42.636;23.198;2023-11-19T04:16:18;91987.69;;;1.47;87.94
37206;BME280;23099;42.636;23.198;2023-11-19T04:18:44;91988.63;;;1.42;86.99
37206;BME280;23099;42.636;23.198;2023-11-19T04:21:11;91983.06;;;1.44;86.39
37206;BME280;23099;42.636;23.198;2023-11-19T04:23:38;91978.25;;;1.46;86.82
37206;BME280;23099;42.636;23.198;2023-11-19T04:26:05;91983.84;;;1.44;87.79
37206;BME280;23099;42.636;23.198;2023-11-19T04:28:33;91983.63;;;1.32;86.99
37206;BME280;23099;42.636;23.198;2023-11-19T04:31:00;91993.69;;;1.30;87.69
37206;BME280;23099;42.636;23.198;2023-11-19T04:33:27;92004.06;;;1.26;87.07
37206;BME280;23099;42.636;23.198;2023-11-19T04:35:53;92003.38;;;1.21;86.90
37206;BME280;23099;42.636;23.198;2023-11-19T04:38:20;91996.28;;;1.21;87.41
37206;BME280;23099;42.636;23.198;2023-11-19T04:40:47;91996.09;;;1.18;87.74
37206;BME280;23099;42.636;23.198;2023-11-19T04:43:13;91989.91;;;1.14;88.20
37206;BME280;23099;42.636;23.198;2023-11-19T04:45:42;91991.22;;;1.02;87.04
37206;BME280;23099;42.636;23.198;2023-11-19T04:48:08;91982.13;;;1.09;87.82
37206;BME280;23099;42.636;23.198;2023-11-19T04:50:35;91977.91;;;0.99;87.62
37206;BME280;23099;42.636;23.198;2023-11-19T04:53:02;91988.38;;;0.90;87.74
37206;BME280;23099;42.636;23.198;2023-11-19T04:55:29;91987.25;;;0.83;88.58
37206;BME280;23099;42.636;23.198;2023-11-19T04:57:56;91986.03;;;0.89;88.89
37206;BME280;23099;42.636;23.198;2023-11-19T05:00:23;91987.00;;;0.93;89.66
37206;BME280;23099;42.636;23.198;2023-11-19T05:02:51;91995.78;;;0.88;88.97
37206;BME280;23099;42.636;23.198;2023-11-19T05:05:18;92002.28;;;0.91;88.60
37206;BME280;23099;42.636;23.198;2023-11-19T05:07:44;92007.19;;;1.06;88.06
37206;BME280;23099;42.636;23.198;2023-11-19T05:10:11;92013.16;;;1.20;86.96
37206;BME280;23099;42.636;23.198;2023-11-19T05:12:38;92020.06;;;1.38;87.32
37206;BME280;23099;42.636;23.198;2023-11-19T05:15:06;92013.53;;;1.36;87.35
37206;BME280;23099;42.636;23.198;2023-11-19T05:17:33;92018.81;;;1.45;87.47
37206;BME280;23099;42.636;23.198;2023-11-19T05:20:01;92016.38;;;1.48;87.16
37206;BME280;23099;42.636;23.198;2023-11-19T05:22:28;92013.72;;;1.48;85.13
37206;BME280;23099;42.636;23.198;2023-11-19T05:24:55;92021.63;;;1.48;85.86
37206;BME280;23099;42.636;23.198;2023-11-19T05:27:22;92002.00;;;1.23;86.23
37206;BME280;23099;42.636;23.198;2023-11-19T05:29:49;92000.63;;;1.26;86.57
37206;BME280;23099;42.636;23.198;2023-11-19T05:32:15;91994.88;;;1.15;87.34
37206;BME280;23099;42.636;23.198;2023-11-19T05:34:42;92003.28;;;1.03;87.61
37206;BME280;23099;42.636;23.198;2023-11-19T05:37:10;92016.16;;;1.05;87.96
37206;BME280;23099;42.636;23.198;2023-11-19T05:39:37;92016.59;;;0.98;88.38
37206;BME280;23099;42.636;23.198;2023-11-19T05:42:04;92021.38;;;0.96;88.85
37206;BME280;23099;42.636;23.198;2023-11-19T05:44:31;92028.19;;;0.75;88.53
37206;BME280;23099;42.636;23.198;2023-11-19T05:46:58;92020.00;;;0.77;88.80
37206;BME280;23099;42.636;23.198;2023-11-19T05:49:24;92028.56;;;0.82;90.15
37206;BME280;23099;42.636;23.198;2023-11-19T05:51:51;92022.56;;;0.90;88.79
37206;BME280;23099;42.636;23.198;2023-11-19T05:54:22;92030.47;;;0.90;89.67
37206;BME280;23099;42.636;23.198;2023-11-19T05:56:49;92023.63;;;0.89;88.69
37206;BME280;23099;42.636;23.198;2023-11-19T05:59:16;92032.19;;;0.95;89.14
37206;BME280;23099;42.636;23.198;2023-11-19T06:01:43;92025.38;;;0.94;88.00
37206;BME280;23099;42.636;23.198;2023-11-19T06:04:10;92039.66;;;1.01;89.27
37206;BME280;23099;42.636;23.198;2023-11-19T06:06:36;92037.16;;;0.96;87.17
37206;BME280;23099;42.636;23.198;2023-11-19T06:09:04;92049.78;;;1.08;87.96
37206;BME280;23099;42.636;23.198;2023-11-19T06:11:33;92051.94;;;1.06;87.65
37206;BME280;23099;42.636;23.198;2023-11-19T06:14:01;92052.88;;;1.10;88.39
37206;BME280;23099;42.636;23.198;2023-11-19T06:16:28;92042.78;;;1.03;88.01
37206;BME280;23099;42.636;23.198;2023-11-19T06:18:55;92041.09;;;1.08;88.17
37206;BME280;23099;42.636;23.198;2023-11-19T06:21:21;92049.47;;;1.10;87.93
37206;BME280;23099;42.636;23.198;2023-11-19T06:23:49;92044.00;;;0.97;88.49
37206;BME280;23099;42.636;23.198;2023-11-19T06:26:17;92047.94;;;0.86;88.43
37206;BME280;23099;42.636;23.198;2023-11-19T06:28:45;92033.03;;;0.82;89.00
37206;BME280;23099;42.636;23.198;2023-11-19T06:31:12;92059.19;;;1.00;88.67
37206;BME280;23099;42.636;23.198;2023-11-19T06:33:41;92057.63;;;0.99;87.51
37206;BME280;23099;42.636;23.198;2023-11-19T06:36:08;92052.53;;;1.03;87.43
37206;BME280;23099;42.636;23.198;2023-11-19T06:38:35;92056.97;;;0.94;86.99
37206;BME280;23099;42.636;23.198;2023-11-19T06:41:07;92068.31;;;1.03;87.30
37206;BME280;23099;42.636;23.198;2023-11-19T06:43:33;92057.94;;;0.98;87.44
37206;BME280;23099;42.636;23.198;2023-11-19T06:46:01;92057.94;;;0.98;87.69
37206;BME280;23099;42.636;23.198;2023-11-19T06:48:31;92065.03;;;0.97;87.40
37206;BME280;23099;42.636;23.198;2023-11-19T06:50:57;92055.28;;;0.98;87.86
37206;BME280;23099;42.636;23.198;2023-11-19T06:53:24;92050.03;;;0.98;87.16
37206;BME280;23099;42.636;23.198;2023-11-19T06:55:53;92057.25;;;0.92;86.95
37206;BME280;23099;42.636;23.198;2023-11-19T06:58:19;92048.06;;;0.81;87.07
37206;BME280;23099;42.636;23.198;2023-11-19T07:00:46;92065.59;;;0.86;87.65
37206;BME280;23099;42.636;23.198;2023-11-19T07:03:16;92067.66;;;0.97;87.00
37206;BME280;23099;42.636;23.198;2023-11-19T07:05:43;92054.69;;;1.01;87.00
37206;BME280;23099;42.636;23.198;2023-11-19T07:08:09;92056.06;;;0.98;87.37
37206;BME280;23099;42.636;23.198;2023-11-19T07:10:36;92060.78;;;0.88;87.62
37206;BME280;23099;42.636;23.198;2023-11-19T07:13:03;92072.22;;;0.83;87.33
37206;BME280;23099;42.636;23.198;2023-11-19T07:15:31;92058.38;;;0.78;88.24
37206;BME280;23099;42.636;23.198;2023-11-19T07:17:58;92057.91;;;0.76;89.16
37206;BME280;23099;42.636;23.198;2023-11-19T07:20:26;92064.38;;;0.69;87.96
37206;BME280;23099;42.636;23.198;2023-11-19T07:22:53;92058.69;;;0.76;88.09
37206;BME280;23099;42.636;23.198;2023-11-19T07:25:20;92065.31;;;0.74;88.50
37206;BME280;23099;42.636;23.198;2023-11-19T07:27:47;92062.69;;;0.74;87.80
37206;BME280;23099;42.636;23.198;2023-11-19T07:30:14;92086.28;;;0.65;87.73
37206;BME280;23099;42.636;23.198;2023-11-19T07:32:41;92078.88;;;0.67;86.06
37206;BME280;23099;42.636;23.198;2023-11-19T07:35:08;92092.41;;;0.74;88.18
37206;BME280;23099;42.636;23.198;2023-11-19T07:37:36;92084.97;;;0.76;88.26
37206;BME280;23099;42.636;23.198;2023-11-19T07:40:03;92086.78;;;0.89;87.74
37206;BME280;23099;42.636;23.198;2023-11-19T07:42:30;92090.03;;;0.86;86.41
37206;BME280;23099;42.636;23.198;2023-11-19T07:44:57;92088.00;;;0.83;86.81
37206;BME280;23099;42.636;23.198;2023-11-19T07:47:24;92088.09;;;0.78;88.09
37206;BME280;23099;42.636;23.198;2023-11-19T07:49:51;92083.13;;;0.77;87.37
37206;BME280;23099;42.636;23.198;2023-11-19T07:52:17;92076.50;;;0.79;87.45
37206;BME280;23099;42.636;23.198;2023-11-19T07:54:46;92083.03;;;0.82;86.86
37206;BME280;23099;42.636;23.198;2023-11-19T07:57:12;92086.94;;;0.84;87.28
37206;BME280;23099;42.636;23.198;2023-11-19T07:59:39;92084.41;;;0.79;87.15
37206;BME280;23099;42.636;23.198;2023-11-19T08:02:06;92087.22;;;0.83;87.30
37206;BME280;23099;42.636;23.198;2023-11-19T08:04:33;92091.16;;;0.94;87.40
37206;BME280;23099;42.636;23.198;2023-11-19T08:07:00;92107.34;;;1.01;87.06
37206;BME280;23099;42.636;23.198;2023-11-19T08:09:26;92106.78;;;1.13;87.77
37206;BME280;23099;42.636;23.198;2023-11-19T08:11:54;92105.66;;;1.27;86.34
37206;BME280;23099;42.636;23.198;2023-11-19T08:14:21;92112.31;;;1.33;85.58
37206;BME280;23099;42.636;23.198;2023-11-19T08:16:48;92112.69;;;1.40;84.89
37206;BME280;23099;42.636;23.198;2023-11-19T08:19:15;92103.25;;;1.39;82.57
37206;BME280;23099;42.636;23.198;2023-11-19T08:21:42;92107.94;;;1.51;82.22
37206;BME280;23099;42.636;23.198;2023-11-19T08:24:09;92110.00;;;1.54;82.42
37206;BME280;23099;42.636;23.198;2023-11-19T08:26:35;92104.16;;;1.66;82.74
37206;BME280;23099;42.636;23.198;2023-11-19T08:29:03;92104.03;;;1.71;82.24
37206;BME280;23099;42.636;23.198;2023-11-19T08:31:30;92099.06;;;1.69;82.02
37206;BME280;23099;42.636;23.198;2023-11-19T08:33:57;92102.00;;;1.68;81.56
37206;BME280;23099;42.636;23.198;2023-11-19T08:36:23;92100.25;;;1.63;83.26
37206;BME280;23099;42.636;23.198;2023-11-19T08:38:50;92105.34;;;1.60;83.72
37206;BME280;23099;42.636;23.198;2023-11-19T08:41:17;92120.44;;;1.46;84.47
37206;BME280;23099;42.636;23.198;2023-11-19T08:43:44;92128.78;;;1.39;84.72
37206;BME280;23099;42.636;23.198;2023-11-19T08:46:12;92129.88;;;1.38;85.01
37206;BME280;23099;42.636;23.198;2023-11-19T08:48:39;92123.03;;;1.37;84.53
37206;BME280;23099;42.636;23.198;2023-11-19T08:51:06;92123.81;;;1.37;84.54
37206;BME280;23099;42.636;23.198;2023-11-19T08:53:34;92123.81;;;1.37;85.41
37206;BME280;23099;42.636;23.198;2023-11-19T08:56:01;92112.22;;;1.38;85.82
37206;BME280;23099;42.636;23.198;2023-11-19T08:58:28;92119.28;;;1.29;85.29
37206;BME280;23099;42.636;23.198;2023-11-19T09:00:56;92133.41;;;1.33;85.37
37206;BME280;23099;42.636;23.198;2023-11-19T09:03:24;92137.78;;;1.38;85.06
37206;BME280;23099;42.636;23.198;2023-11-19T09:05:51;92132.97;;;1.40;84.52
37206;BME280;23099;42.636;23.198;2023-11-19T09:08:18;92128.13;;;1.33;85.70
37206;BME280;23099;42.636;23.198;2023-11-19T09:10:45;92140.41;;;1.38;84.82
37206;BME280;23099;42.636;23.198;2023-11-19T09:13:12;92121.06;;;1.42;84.18
37206;BME280;23099;42.636;23.198;2023-11-19T09:15:38;92118.91;;;1.45;85.08
37206;BME280;23099;42.636;23.198;2023-11-19T09:18:05;92114.88;;;1.47;86.25
37206;BME280;23099;42.636;23.198;2023-11-19T09:20:33;92117.47;;;1.38;85.27
37206;BME280;23099;42.636;23.198;2023-11-19T09:23:03;92123.53;;;1.39;86.63
37206;BME280;23099;42.636;23.198;2023-11-19T09:25:30;92139.38;;;1.48;86.59
37206;BME280;23099;42.636;23.198;2023-11-19T09:27:57;92136.25;;;1.46;86.52
37206;BME280;23099;42.636;23.198;2023-11-19T09:30:24;92135.31;;;1.41;87.46
37206;BME280;23099;42.636;23.198;2023-11-19T09:32:50;92101.34;;;1.09;87.00
37206;BME280;23099;42.636;23.198;2023-11-19T09:35:17;92125.06;;;1.18;87.97
37206;BME280;23099;42.636;23.198;2023-11-19T09:37:45;92115.81;;;1.20;88.28
37206;BME280;23099;42.636;23.198;2023-11-19T09:40:12;92100.88;;;1.29;88.73
37206;BME280;23099;42.636;23.198;2023-11-19T09:42:43;92099.13;;;1.25;88.97
37206;BME280;23099;42.636;23.198;2023-11-19T09:45:13;92093.63;;;1.13;88.36
37206;BME280;23099;42.636;23.198;2023-11-19T09:47:40;92088.53;;;1.16;88.05
37206;BME280;23099;42.636;23.198;2023-11-19T09:50:08;92050.88;;;1.16;88.94
37206;BME280;23099;42.636;23.198;2023-11-19T09:52:35;92069.59;;;1.36;86.24
37206;BME280;23099;42.636;23.198;2023-11-19T09:55:03;92065.59;;;1.39;85.95
37206;BME280;23099;42.636;23.198;2023-11-19T09:57:32;92055.25;;;1.42;86.22
37206;BME280;23099;42.636;23.198;2023-11-19T09:59:59;92050.75;;;1.43;85.47
37206;BME280;23099;42.636;23.198;2023-11-19T10:02:27;92036.63;;;1.39;84.69
37206;BME280;23099;42.636;23.198;2023-11-19T10:04:58;92068.66;;;1.63;82.67
37206;BME280;23099;42.636;23.198;2023-11-19T10:07:25;92082.66;;;1.72;82.25
37206;BME280;23099;42.636;23.198;2023-11-19T10:09:51;92072.00;;;1.86;82.13
37206;BME280;23099;42.636;23.198;2023-11-19T10:12:19;92062.56;;;1.94;82.39
37206;BME280;23099;42.636;23.198;2023-11-19T10:14:47;92052.69;;;1.99;83.04
37206;BME280;23099;42.636;23.198;2023-11-19T10:17:16;92060.84;;;1.89;83.44
37206;BME280;23099;42.636;23.198;2023-11-19T10:19:43;92074.31;;;1.88;79.49
37206;BME280;23099;42.636;23.198;2023-11-19T10:22:10;92071.44;;;1.98;80.82
37206;BME280;23099;42.636;23.198;2023-11-19T10:24:37;92071.91;;;2.08;79.29
37206;BME280;23099;42.636;23.198;2023-11-19T10:27:07;92066.34;;;2.10;79.75
37206;BME280;23099;42.636;23.198;2023-11-19T10:29:37;92053.34;;;2.13;79.27
37206;BME280;23099;42.636;23.198;2023-11-19T10:32:04;92050.53;;;2.19;79.04
37206;BME280;23099;42.636;23.198;2023-11-19T10:34:31;92047.63;;;2.29;78.76
37206;BME280;23099;42.636;23.198;2023-11-19T10:36:57;92041.13;;;2.43;79.11
37206;BME280;23099;42.636;23.198;2023-11-19T10:42:15;92057.44;;;2.54;77.87
37206;BME280;23099;42.636;23.198;2023-11-19T10:44:44;92048.59;;;2.59;78.11
37206;BME280;23099;42.636;23.198;2023-11-19T10:47:11;92038.19;;;2.71;77.86
37206;BME280;23099;42.636;23.198;2023-11-19T10:49:40;92048.91;;;2.83;77.49
37206;BME280;23099;42.636;23.198;2023-11-19T10:52:08;92049.81;;;2.78;78.22
37206;BME280;23099;42.636;23.198;2023-11-19T10:54:37;92054.19;;;2.66;76.68
37206;BME280;23099;42.636;23.198;2023-11-19T10:57:09;92049.81;;;2.61;76.73
37206;BME280;23099;42.636;23.198;2023-11-19T10:59:37;92053.22;;;2.62;77.93
37206;BME280;23099;42.636;23.198;2023-11-19T11:02:09;92045.19;;;2.58;78.87
37206;BME280;23099;42.636;23.198;2023-11-19T11:04:41;92031.66;;;2.77;77.63
37206;BME280;23099;42.636;23.198;2023-11-19T11:07:09;92030.75;;;2.81;78.63
37206;BME280;23099;42.636;23.198;2023-11-19T11:09:36;92015.22;;;2.71;76.11
37206;BME280;23099;42.636;23.198;2023-11-19T11:12:04;92003.53;;;2.90;78.45
37206;BME280;23099;42.636;23.198;2023-11-19T11:14:34;91995.91;;;3.05;75.46
37206;BME280;23099;42.636;23.198;2023-11-19T11:17:08;92005.28;;;3.49;74.50
37206;BME280;23099;42.636;23.198;2023-11-19T11:19:36;92008.78;;;3.71;73.12
37206;BME280;23099;42.636;23.198;2023-11-19T11:22:04;92002.63;;;3.49;73.50
37206;BME280;23099;42.636;23.198;2023-11-19T11:24:48;92004.53;;;3.78;72.21
37206;BME280;23099;42.636;23.198;2023-11-19T11:27:48;92010.72;;;4.20;72.47
37206;BME280;23099;42.636;23.198;2023-11-19T11:30:28;92001.13;;;4.78;69.15
37206;BME280;23099;42.636;23.198;2023-11-19T11:33:06;91998.09;;;5.21;67.09
37206;BME280;23099;42.636;23.198;2023-11-19T11:35:43;91988.00;;;5.48;62.83
37206;BME280;23099;42.636;23.198;2023-11-19T11:38:14;91987.91;;;5.56;61.52
37206;BME280;23099;42.636;23.198;2023-11-19T11:40:43;91981.31;;;5.62;62.23
37206;BME280;23099;42.636;23.198;2023-11-19T11:46:08;91975.19;;;5.50;65.84
37206;BME280;23099;42.636;23.198;2023-11-19T11:48:43;91969.91;;;5.62;60.29
37206;BME280;23099;42.636;23.198;2023-11-19T11:51:13;91968.44;;;5.52;60.25
37206;BME280;23099;42.636;23.198;2023-11-19T11:53:41;91963.31;;;5.23;62.04
37206;BME280;23099;42.636;23.198;2023-11-19T11:56:08;91978.78;;;4.88;62.00
37206;BME280;23099;42.636;23.198;2023-11-19T11:58:35;91971.03;;;4.83;64.99
37206;BME280;23099;42.636;23.198;2023-11-19T12:01:04;91970.13;;;4.79;66.62
37206;BME280;23099;42.636;23.198;2023-11-19T12:03:34;91976.00;;;4.63;65.47
37206;BME280;23099;42.636;23.198;2023-11-19T12:06:05;91970.34;;;4.53;65.62
37206;BME280;23099;42.636;23.198;2023-11-19T12:08:34;91965.31;;;4.60;64.81
37206;BME280;23099;42.636;23.198;2023-11-19T12:11:01;91958.34;;;4.55;66.58
37206;BME280;23099;42.636;23.198;2023-11-19T12:13:53;91958.53;;;4.71;66.33
37206;BME280;23099;42.636;23.198;2023-11-19T12:16:23;91963.59;;;4.76;65.95
37206;BME280;23099;42.636;23.198;2023-11-19T12:18:50;91953.00;;;4.76;65.15
37206;BME280;23099;42.636;23.198;2023-11-19T12:21:30;91948.72;;;4.72;64.93
37206;BME280;23099;42.636;23.198;2023-11-19T12:23:59;91946.69;;;4.69;66.63
37206;BME280;23099;42.636;23.198;2023-11-19T12:26:37;91941.88;;;4.71;65.78
37206;BME280;23099;42.636;23.198;2023-11-19T12:29:04;91943.00;;;4.82;67.19
37206;BME280;23099;42.636;23.198;2023-11-19T12:31:32;91947.59;;;4.73;64.74
37206;BME280;23099;42.636;23.198;2023-11-19T12:34:05;91932.09;;;4.62;64.43
37206;BME280;23099;42.636;23.198;2023-11-19T12:36:34;91927.84;;;4.70;65.53
37206;BME280;23099;42.636;23.198;2023-11-19T12:39:01;91935.47;;;4.72;67.09
37206;BME280;23099;42.636;23.198;2023-11-19T12:41:27;91936.63;;;4.62;64.82
37206;BME280;23099;42.636;23.198;2023-11-19T12:44:08;91940.00;;;4.71;67.70
37206;BME280;23099;42.636;23.198;2023-11-19T12:46:35;91942.97;;;4.70;65.48
37206;BME280;23099;42.636;23.198;2023-11-19T12:49:02;91927.97;;;4.74;66.47
37206;BME280;23099;42.636;23.198;2023-11-19T12:51:32;91935.84;;;4.82;64.24
37206;BME280;23099;42.636;23.198;2023-11-19T12:53:59;91932.00;;;4.92;66.21
37206;BME280;23099;42.636;23.198;2023-11-19T12:56:26;91919.78;;;5.00;63.65
37206;BME280;23099;42.636;23.198;2023-11-19T12:58:52;91922.06;;;4.89;64.40
37206;BME280;23099;42.636;23.198;2023-11-19T13:01:20;91918.06;;;4.83;62.91
37206;BME280;23099;42.636;23.198;2023-11-19T13:03:47;91901.56;;;4.65;63.62
37206;BME280;23099;42.636;23.198;2023-11-19T13:06:16;91913.16;;;4.60;63.13
37206;BME280;23099;42.636;23.198;2023-11-19T13:08:48;91913.25;;;4.64;65.41